sensor_id;sensor_type;location;lat;lon;timestamp;temperature;humidity
1413;DHT22;701;52.526;13.408;2023-10-09T00:02:21;13.10;11.50
1413;DHT22;701;52.526;13.408;2023-10-09T00:04:46;13.10;11.60
1413;DHT22;701;52.526;13.408;2023-10-09T00:07:12;13.00;11.50
1413;DHT22;701;52.526;13.408;2023-10-09T00:09:42;13.00;11.80
1413;DHT22;701;52.526;13.408;2023-10-09T00:12:11;13.00;11.60
1413;DHT22;701;52.526;13.408;2023-10-09T00:14:37;13.00;12.10
1413;DHT22;701;52.526;13.408;2023-10-09T00:17:04;13.00;12.30
1413;DHT22;701;52.526;13.408;2023-10-09T00:19:36;12.90;12.20
1413;DHT22;701;52.526;13.408;2023-10-09T00:22:03;12.90;13.00
1413;DHT22;701;52.526;13.408;2023-10-09T00:24:54;12.90;13.40
1413;DHT22;701;52.526;13.408;2023-10-09T00:27:47;12.90;14.00
1413;DHT22;701;52.526;13.408;2023-10-09T00:30:15;12.80;14.50
1413;DHT22;701;52.526;13.408;2023-10-09T00:32:47;12.80;15.00
1413;DHT22;701;52.526;13.408;2023-10-09T00:35:25;12.70;15.70
1413;DHT22;701;52.526;13.408;2023-10-09T00:38:09;12.70;16.10
1413;DHT22;701;52.526;13.408;2023-10-09T00:40:57;12.60;16.80
1413;DHT22;701;52.526;13.408;2023-10-09T00:43:36;12.60;17.50
1413;DHT22;701;52.526;13.408;2023-10-09T00:46:05;12.50;18.50
1413;DHT22;701;52.526;13.408;2023-10-09T00:48:37;12.50;18.60
1413;DHT22;701;52.526;13.408;2023-10-09T00:51:07;12.40;19.00
1413;DHT22;701;52.526;13.408;2023-10-09T00:53:45;12.40;18.90
1413;DHT22;701;52.526;13.408;2023-10-09T00:56:21;12.40;18.90
1413;DHT22;701;52.526;13.408;2023-10-09T00:59:00;12.40;18.80
1413;DHT22;701;52.526;13.408;2023-10-09T01:01:36;12.40;19.40
1413;DHT22;701;52.526;13.408;2023-10-09T01:04:04;12.40;19.50
1413;DHT22;701;52.526;13.408;2023-10-09T01:06:38;12.40;19.90
1413;DHT22;701;52.526;13.408;2023-10-09T01:09:11;12.40;19.80
1413;DHT22;701;52.526;13.408;2023-10-09T01:11:40;12.40;20.00
1413;DHT22;701;52.526;13.408;2023-10-09T01:14:29;12.40;20.70
1413;DHT22;701;52.526;13.408;2023-10-09T01:16:57;12.30;21.20
1413;DHT22;701;52.526;13.408;2023-10-09T01:19:23;12.30;21.20
1413;DHT22;701;52.526;13.408;2023-10-09T01:21:52;12.30;21.50
1413;DHT22;701;52.526;13.408;2023-10-09T01:24:18;12.20;21.50
1413;DHT22;701;52.526;13.408;2023-10-09T01:26:53;12.20;21.80
1413;DHT22;701;52.526;13.408;2023-10-09T01:29:21;12.20;21.90
1413;DHT22;701;52.526;13.408;2023-10-09T01:31:51;12.20;22.10
1413;DHT22;701;52.526;13.408;2023-10-09T01:34:25;12.20;22.40
1413;DHT22;701;52.526;13.408;2023-10-09T01:37:05;12.10;22.80
1413;DHT22;701;52.526;13.408;2023-10-09T01:39:40;12.10;23.00
1413;DHT22;701;52.526;13.408;2023-10-09T01:42:08;12.10;23.30
1413;DHT22;701;52.526;13.408;2023-10-09T01:44:34;12.10;23.30
1413;DHT22;701;52.526;13.408;2023-10-09T01:47:04;12.10;23.80
1413;DHT22;701;52.526;13.408;2023-10-09T01:49:39;12.00;24.30
1413;DHT22;701;52.526;13.408;2023-10-09T01:52:15;12.00;24.60
1413;DHT22;701;52.526;13.408;2023-10-09T01:54:42;12.00;24.80
1413;DHT22;701;52.526;13.408;2023-10-09T01:57:13;12.00;25.10
1413;DHT22;701;52.526;13.408;2023-10-09T01:59:40;12.00;25.50
1413;DHT22;701;52.526;13.408;2023-10-09T02:02:13;11.90;25.40
1413;DHT22;701;52.526;13.408;2023-10-09T02:04:57;11.90;25.30
1413;DHT22;701;52.526;13.408;2023-10-09T02:07:35;11.90;25.30
1413;DHT22;701;52.526;13.408;2023-10-09T02:10:13;11.90;25.30
1413;DHT22;701;52.526;13.408;2023-10-09T02:13:01;11.90;25.30
1413;DHT22;701;52.526;13.408;2023-10-09T02:15:33;11.90;25.30
1413;DHT22;701;52.526;13.408;2023-10-09T02:18:28;12.00;25.40
1413;DHT22;701;52.526;13.408;2023-10-09T02:23:38;12.00;26.10
1413;DHT22;701;52.526;13.408;2023-10-09T02:26:07;12.00;26.40
1413;DHT22;701;52.526;13.408;2023-10-09T02:28:35;12.00;27.00
1413;DHT22;701;52.526;13.408;2023-10-09T02:31:10;12.00;26.80
1413;DHT22;701;52.526;13.408;2023-10-09T02:33:37;12.00;26.80
1413;DHT22;701;52.526;13.408;2023-10-09T02:36:05;12.00;26.80
1413;DHT22;701;52.526;13.408;2023-10-09T02:38:32;12.00;26.80
1413;DHT22;701;52.526;13.408;2023-10-09T02:41:02;12.00;27.20
1413;DHT22;701;52.526;13.408;2023-10-09T02:43:29;12.00;27.80
1413;DHT22;701;52.526;13.408;2023-10-09T02:46:01;11.90;28.40
1413;DHT22;701;52.526;13.408;2023-10-09T02:48:39;11.90;28.40
1413;DHT22;701;52.526;13.408;2023-10-09T02:51:10;11.90;28.20
1413;DHT22;701;52.526;13.408;2023-10-09T02:53:54;11.90;28.80
1413;DHT22;701;52.526;13.408;2023-10-09T02:56:22;11.90;28.90
1413;DHT22;701;52.526;13.408;2023-10-09T02:59:01;11.90;28.90
1413;DHT22;701;52.526;13.408;2023-10-09T03:01:34;11.90;29.20
1413;DHT22;701;52.526;13.408;2023-10-09T03:04:01;11.90;29.30
1413;DHT22;701;52.526;13.408;2023-10-09T03:06:28;11.90;29.20
1413;DHT22;701;52.526;13.408;2023-10-09T03:08:58;11.80;30.10
1413;DHT22;701;52.526;13.408;2023-10-09T03:11:24;11.80;29.50
1413;DHT22;701;52.526;13.408;2023-10-09T03:13:53;11.80;29.40
1413;DHT22;701;52.526;13.408;2023-10-09T03:16:19;11.80;29.30
1413;DHT22;701;52.526;13.408;2023-10-09T03:18:52;11.90;29.40
1413;DHT22;701;52.526;13.408;2023-10-09T03:21:19;11.80;29.40
1413;DHT22;701;52.526;13.408;2023-10-09T03:23:48;11.90;30.00
1413;DHT22;701;52.526;13.408;2023-10-09T03:26:20;11.90;29.60
1413;DHT22;701;52.526;13.408;2023-10-09T03:28:47;11.90;29.70
1413;DHT22;701;52.526;13.408;2023-10-09T03:31:13;11.80;29.80
1413;DHT22;701;52.526;13.408;2023-10-09T03:33:39;11.80;30.00
1413;DHT22;701;52.526;13.408;2023-10-09T03:36:06;11.80;30.20
1413;DHT22;701;52.526;13.408;2023-10-09T03:38:38;11.80;30.40
1413;DHT22;701;52.526;13.408;2023-10-09T03:41:07;11.70;30.30
1413;DHT22;701;52.526;13.408;2023-10-09T03:43:38;11.70;30.40
1413;DHT22;701;52.526;13.408;2023-10-09T03:46:10;11.70;30.90
1413;DHT22;701;52.526;13.408;2023-10-09T03:48:52;11.70;31.30
1413;DHT22;701;52.526;13.408;2023-10-09T03:51:21;11.70;31.20
1413;DHT22;701;52.526;13.408;2023-10-09T03:53:51;11.70;31.50
1413;DHT22;701;52.526;13.408;2023-10-09T03:56:20;11.70;31.50
1413;DHT22;701;52.526;13.408;2023-10-09T03:58:50;11.70;32.00
1413;DHT22;701;52.526;13.408;2023-10-09T04:01:21;11.70;32.10
1413;DHT22;701;52.526;13.408;2023-10-09T04:03:58;11.70;31.80
1413;DHT22;701;52.526;13.408;2023-10-09T04:06:28;11.70;32.10
1413;DHT22;701;52.526;13.408;2023-10-09T04:09:08;11.70;32.10
1413;DHT22;701;52.526;13.408;2023-10-09T04:11:44;11.70;31.90
1413;DHT22;701;52.526;13.408;2023-10-09T04:14:13;11.60;32.60
1413;DHT22;701;52.526;13.408;2023-10-09T04:16:51;11.60;32.30
1413;DHT22;701;52.526;13.408;2023-10-09T04:19:17;11.60;32.50
1413;DHT22;701;52.526;13.408;2023-10-09T04:21:48;11.60;32.70
1413;DHT22;701;52.526;13.408;2023-10-09T04:24:14;11.50;32.80
1413;DHT22;701;52.526;13.408;2023-10-09T04:26:44;11.50;33.20
1413;DHT22;701;52.526;13.408;2023-10-09T04:29:16;11.50;33.10
1413;DHT22;701;52.526;13.408;2023-10-09T04:32:04;11.40;33.10
1413;DHT22;701;52.526;13.408;2023-10-09T04:34:34;11.40;33.40
1413;DHT22;701;52.526;13.408;2023-10-09T04:37:10;11.40;33.80
1413;DHT22;701;52.526;13.408;2023-10-09T04:39:54;11.30;34.10
1413;DHT22;701;52.526;13.408;2023-10-09T04:42:53;11.30;35.00
1413;DHT22;701;52.526;13.408;2023-10-09T04:45:24;11.30;35.30
1413;DHT22;701;52.526;13.408;2023-10-09T04:48:09;11.20;35.40
1413;DHT22;701;52.526;13.408;2023-10-09T04:50:36;11.20;35.50
1413;DHT22;701;52.526;13.408;2023-10-09T04:53:06;11.20;35.80
1413;DHT22;701;52.526;13.408;2023-10-09T04:55:44;11.20;36.00
1413;DHT22;701;52.526;13.408;2023-10-09T04:58:23;11.30;36.00
1413;DHT22;701;52.526;13.408;2023-10-09T05:00:54;11.30;36.00
1413;DHT22;701;52.526;13.408;2023-10-09T05:03:22;11.30;36.20
1413;DHT22;701;52.526;13.408;2023-10-09T05:06:09;11.30;35.70
1413;DHT22;701;52.526;13.408;2023-10-09T05:08:50;11.30;35.50
1413;DHT22;701;52.526;13.408;2023-10-09T05:11:22;11.30;35.60
1413;DHT22;701;52.526;13.408;2023-10-09T05:14:01;11.30;35.80
1413;DHT22;701;52.526;13.408;2023-10-09T05:16:39;11.20;35.90
1413;DHT22;701;52.526;13.408;2023-10-09T05:19:20;11.20;36.50
1413;DHT22;701;52.526;13.408;2023-10-09T05:22:05;11.20;36.70
1413;DHT22;701;52.526;13.408;2023-10-09T05:24:33;11.20;36.70
1413;DHT22;701;52.526;13.408;2023-10-09T05:27:09;11.20;36.70
1413;DHT22;701;52.526;13.408;2023-10-09T05:29:44;11.30;36.80
1413;DHT22;701;52.526;13.408;2023-10-09T05:32:38;11.30;36.80
1413;DHT22;701;52.526;13.408;2023-10-09T05:35:14;11.30;36.10
1413;DHT22;701;52.526;13.408;2023-10-09T05:37:45;11.30;35.10
1413;DHT22;701;52.526;13.408;2023-10-09T05:40:12;11.20;34.90
1413;DHT22;701;52.526;13.408;2023-10-09T05:42:42;11.20;34.60
1413;DHT22;701;52.526;13.408;2023-10-09T05:45:10;11.20;34.70
1413;DHT22;701;52.526;13.408;2023-10-09T05:47:54;11.20;35.00
1413;DHT22;701;52.526;13.408;2023-10-09T05:50:29;11.20;35.30
1413;DHT22;701;52.526;13.408;2023-10-09T05:52:58;11.20;35.40
1413;DHT22;701;52.526;13.408;2023-10-09T05:55:29;11.30;35.40
1413;DHT22;701;52.526;13.408;2023-10-09T05:58:33;11.30;35.60
1413;DHT22;701;52.526;13.408;2023-10-09T06:01:27;11.40;36.00
1413;DHT22;701;52.526;13.408;2023-10-09T06:04:12;11.40;35.80
1413;DHT22;701;52.526;13.408;2023-10-09T06:06:41;11.50;35.60
1413;DHT22;701;52.526;13.408;2023-10-09T06:09:14;11.50;35.50
1413;DHT22;701;52.526;13.408;2023-10-09T06:11:48;11.50;34.90
1413;DHT22;701;52.526;13.408;2023-10-09T06:14:15;11.50;34.80
1413;DHT22;701;52.526;13.408;2023-10-09T06:16:51;11.50;34.90
1413;DHT22;701;52.526;13.408;2023-10-09T06:19:24;11.50;34.10
1413;DHT22;701;52.526;13.408;2023-10-09T06:21:54;11.50;34.10
1413;DHT22;701;52.526;13.408;2023-10-09T06:24:30;11.60;33.70
1413;DHT22;701;52.526;13.408;2023-10-09T06:27:03;11.60;33.50
1413;DHT22;701;52.526;13.408;2023-10-09T06:29:30;11.60;32.60
1413;DHT22;701;52.526;13.408;2023-10-09T06:32:17;11.60;32.60
1413;DHT22;701;52.526;13.408;2023-10-09T06:37:20;11.70;32.80
1413;DHT22;701;52.526;13.408;2023-10-09T06:39:56;11.80;32.40
1413;DHT22;701;52.526;13.408;2023-10-09T06:42:26;11.80;31.60
1413;DHT22;701;52.526;13.408;2023-10-09T06:45:11;11.80;31.60
1413;DHT22;701;52.526;13.408;2023-10-09T06:47:49;11.90;31.20
1413;DHT22;701;52.526;13.408;2023-10-09T06:50:25;12.00;31.40
1413;DHT22;701;52.526;13.408;2023-10-09T06:52:53;12.00;31.60
1413;DHT22;701;52.526;13.408;2023-10-09T06:55:38;12.10;31.10
1413;DHT22;701;52.526;13.408;2023-10-09T06:58:30;12.20;30.80
1413;DHT22;701;52.526;13.408;2023-10-09T07:01:08;12.20;30.30
1413;DHT22;701;52.526;13.408;2023-10-09T07:03:50;12.30;30.10
1413;DHT22;701;52.526;13.408;2023-10-09T07:06:20;12.30;29.70
1413;DHT22;701;52.526;13.408;2023-10-09T07:08:58;12.40;29.80
1413;DHT22;701;52.526;13.408;2023-10-09T07:11:36;12.50;29.20
1413;DHT22;701;52.526;13.408;2023-10-09T07:16:57;12.60;29.20
1413;DHT22;701;52.526;13.408;2023-10-09T07:19:24;12.70;29.00
1413;DHT22;701;52.526;13.408;2023-10-09T07:22:01;12.80;28.50
1413;DHT22;701;52.526;13.408;2023-10-09T07:24:31;12.80;27.80
1413;DHT22;701;52.526;13.408;2023-10-09T07:27:12;12.80;27.40
1413;DHT22;701;52.526;13.408;2023-10-09T07:29:41;12.80;27.30
1413;DHT22;701;52.526;13.408;2023-10-09T07:32:14;12.80;26.80
1413;DHT22;701;52.526;13.408;2023-10-09T07:34:46;12.80;26.80
1413;DHT22;701;52.526;13.408;2023-10-09T07:37:29;12.80;26.60
1413;DHT22;701;52.526;13.408;2023-10-09T07:40:02;12.80;25.90
1413;DHT22;701;52.526;13.408;2023-10-09T07:42:33;12.80;25.90
1413;DHT22;701;52.526;13.408;2023-10-09T07:45:02;12.90;26.00
1413;DHT22;701;52.526;13.408;2023-10-09T07:47:57;12.90;26.10
1413;DHT22;701;52.526;13.408;2023-10-09T07:50:26;13.00;26.10
1413;DHT22;701;52.526;13.408;2023-10-09T07:53:07;13.00;26.10
1413;DHT22;701;52.526;13.408;2023-10-09T07:56:05;13.00;25.70
1413;DHT22;701;52.526;13.408;2023-10-09T07:58:34;13.10;25.60
1413;DHT22;701;52.526;13.408;2023-10-09T08:01:12;13.10;25.50
1413;DHT22;701;52.526;13.408;2023-10-09T08:03:46;13.10;25.00
1413;DHT22;701;52.526;13.408;2023-10-09T08:06:13;13.10;25.00
1413;DHT22;701;52.526;13.408;2023-10-09T08:08:57;13.10;25.10
1413;DHT22;701;52.526;13.408;2023-10-09T08:11:39;13.00;25.60
1413;DHT22;701;52.526;13.408;2023-10-09T08:14:08;13.00;25.30
1413;DHT22;701;52.526;13.408;2023-10-09T08:16:52;13.00;25.60
1413;DHT22;701;52.526;13.408;2023-10-09T08:19:40;13.00;25.60
1413;DHT22;701;52.526;13.408;2023-10-09T08:22:37;13.00;26.10
1413;DHT22;701;52.526;13.408;2023-10-09T08:25:12;13.10;25.80
1413;DHT22;701;52.526;13.408;2023-10-09T08:28:01;13.10;25.00
1413;DHT22;701;52.526;13.408;2023-10-09T08:30:39;13.00;25.10
1413;DHT22;701;52.526;13.408;2023-10-09T08:33:27;13.00;25.20
1413;DHT22;701;52.526;13.408;2023-10-09T08:35:57;13.00;25.30
1413;DHT22;701;52.526;13.408;2023-10-09T08:38:30;12.90;25.60
1413;DHT22;701;52.526;13.408;2023-10-09T08:41:12;13.00;25.80
1413;DHT22;701;52.526;13.408;2023-10-09T08:43:51;13.00;26.00
1413;DHT22;701;52.526;13.408;2023-10-09T08:46:25;13.00;25.70
1413;DHT22;701;52.526;13.408;2023-10-09T08:48:58;13.00;25.70
1413;DHT22;701;52.526;13.408;2023-10-09T08:51:25;13.10;26.00
1413;DHT22;701;52.526;13.408;2023-10-09T08:53:52;13.10;25.50
1413;DHT22;701;52.526;13.408;2023-10-09T08:56:20;13.00;25.20
1413;DHT22;701;52.526;13.408;2023-10-09T09:01:20;13.00;25.00
1413;DHT22;701;52.526;13.408;2023-10-09T09:03:48;13.00;25.10
1413;DHT22;701;52.526;13.408;2023-10-09T09:06:20;13.00;24.90
1413;DHT22;701;52.526;13.408;2023-10-09T09:08:46;13.00;24.70
1413;DHT22;701;52.526;13.408;2023-10-09T09:11:16;13.00;24.90
1413;DHT22;701;52.526;13.408;2023-10-09T09:14:02;13.10;24.90
1413;DHT22;701;52.526;13.408;2023-10-09T09:16:31;13.10;24.80
1413;DHT22;701;52.526;13.408;2023-10-09T09:19:04;13.20;24.60
1413;DHT22;701;52.526;13.408;2023-10-09T09:21:38;13.30;24.40
1413;DHT22;701;52.526;13.408;2023-10-09T09:24:12;13.50;24.30
1413;DHT22;701;52.526;13.408;2023-10-09T09:26:47;13.60;22.90
1413;DHT22;701;52.526;13.408;2023-10-09T09:29:38;13.70;22.10
1413;DHT22;701;52.526;13.408;2023-10-09T09:32:08;13.80;22.30
1413;DHT22;701;52.526;13.408;2023-10-09T09:34:51;13.90;21.80
1413;DHT22;701;52.526;13.408;2023-10-09T09:37:22;14.10;21.60
1413;DHT22;701;52.526;13.408;2023-10-09T09:40:01;14.20;21.40
1413;DHT22;701;52.526;13.408;2023-10-09T09:42:30;14.30;20.80
1413;DHT22;701;52.526;13.408;2023-10-09T09:45:01;14.40;20.90
1413;DHT22;701;52.526;13.408;2023-10-09T09:47:27;14.50;20.50
1413;DHT22;701;52.526;13.408;2023-10-09T09:49:58;14.50;19.90
1413;DHT22;701;52.526;13.408;2023-10-09T09:52:29;14.40;19.60
1413;DHT22;701;52.526;13.408;2023-10-09T09:54:55;14.30;19.70
1413;DHT22;701;52.526;13.408;2023-10-09T09:57:23;14.10;19.60
1413;DHT22;701;52.526;13.408;2023-10-09T09:59:52;13.90;19.60
1413;DHT22;701;52.526;13.408;2023-10-09T10:02:28;13.80;20.40
1413;DHT22;701;52.526;13.408;2023-10-09T10:05:02;13.70;20.90
1413;DHT22;701;52.526;13.408;2023-10-09T10:07:31;13.60;21.20
1413;DHT22;701;52.526;13.408;2023-10-09T10:10:39;13.60;21.50
1413;DHT22;701;52.526;13.408;2023-10-09T10:13:13;13.60;22.00
1413;DHT22;701;52.526;13.408;2023-10-09T10:18:58;13.60;21.80
1413;DHT22;701;52.526;13.408;2023-10-09T10:21:36;13.60;21.80
1413;DHT22;701;52.526;13.408;2023-10-09T10:35:17;13.80;21.70
1413;DHT22;701;52.526;13.408;2023-10-09T10:37:46;13.90;21.80
1413;DHT22;701;52.526;13.408;2023-10-09T10:40:28;13.90;21.70
1413;DHT22;701;52.526;13.408;2023-10-09T10:43:15;13.90;21.70
1413;DHT22;701;52.526;13.408;2023-10-09T10:46:04;14.00;21.60
1413;DHT22;701;52.526;13.408;2023-10-09T10:48:36;14.10;21.50
1413;DHT22;701;52.526;13.408;2023-10-09T10:51:05;14.10;20.90
1413;DHT22;701;52.526;13.408;2023-10-09T10:53:31;14.20;21.10
1413;DHT22;701;52.526;13.408;2023-10-09T10:56:13;14.30;20.80
1413;DHT22;701;52.526;13.408;2023-10-09T10:58:43;14.30;20.40
1413;DHT22;701;52.526;13.408;2023-10-09T11:01:32;14.30;20.50
1413;DHT22;701;52.526;13.408;2023-10-09T11:04:22;14.30;20.60
1413;DHT22;701;52.526;13.408;2023-10-09T11:07:02;14.40;20.20
1413;DHT22;701;52.526;13.408;2023-10-09T11:09:56;14.50;19.90
1413;DHT22;701;52.526;13.408;2023-10-09T11:15:09;14.70;19.50
1413;DHT22;701;52.526;13.408;2023-10-09T11:18:06;14.90;19.30
1413;DHT22;701;52.526;13.408;2023-10-09T11:20:44;15.00;18.20
1413;DHT22;701;52.526;13.408;2023-10-09T11:23:29;15.10;18.10
1413;DHT22;701;52.526;13.408;2023-10-09T11:26:05;15.30;17.70
1413;DHT22;701;52.526;13.408;2023-10-09T11:31:42;15.50;16.40
1413;DHT22;701;52.526;13.408;2023-10-09T11:34:23;15.50;16.90
1413;DHT22;701;52.526;13.408;2023-10-09T11:36:59;15.60;16.90
1413;DHT22;701;52.526;13.408;2023-10-09T11:39:31;15.70;17.00
1413;DHT22;701;52.526;13.408;2023-10-09T11:42:09;15.70;17.00
1413;DHT22;701;52.526;13.408;2023-10-09T11:44:42;15.80;17.10
1413;DHT22;701;52.526;13.408;2023-10-09T11:47:12;15.80;17.00
1413;DHT22;701;52.526;13.408;2023-10-09T11:49:54;15.80;16.70
1413;DHT22;701;52.526;13.408;2023-10-09T11:52:56;16.00;16.80
1413;DHT22;701;52.526;13.408;2023-10-09T11:55:35;16.40;15.80
1413;DHT22;701;52.526;13.408;2023-10-09T11:58:02;16.70;15.10
1413;DHT22;701;52.526;13.408;2023-10-09T12:00:28;16.80;14.60
1413;DHT22;701;52.526;13.408;2023-10-09T12:03:07;17.00;14.10
1413;DHT22;701;52.526;13.408;2023-10-09T12:05:32;17.10;13.50
1413;DHT22;701;52.526;13.408;2023-10-09T12:07:59;17.30;12.90
1413;DHT22;701;52.526;13.408;2023-10-09T12:10:27;17.30;12.60
1413;DHT22;701;52.526;13.408;2023-10-09T12:12:53;17.50;12.60
1413;DHT22;701;52.526;13.408;2023-10-09T12:15:19;17.40;11.80
1413;DHT22;701;52.526;13.408;2023-10-09T12:17:47;17.30;11.80
1413;DHT22;701;52.526;13.408;2023-10-09T12:20:16;17.20;12.20
1413;DHT22;701;52.526;13.408;2023-10-09T12:22:59;17.20;12.30
1413;DHT22;701;52.526;13.408;2023-10-09T12:25:26;17.20;11.70
1413;DHT22;701;52.526;13.408;2023-10-09T12:27:52;17.00;11.50
1413;DHT22;701;52.526;13.408;2023-10-09T12:30:20;16.90;11.80
1413;DHT22;701;52.526;13.408;2023-10-09T12:32:56;16.80;12.20
1413;DHT22;701;52.526;13.408;2023-10-09T12:35:24;16.70;12.40
1413;DHT22;701;52.526;13.408;2023-10-09T12:37:54;16.60;12.40
1413;DHT22;701;52.526;13.408;2023-10-09T12:40:23;16.60;12.60
1413;DHT22;701;52.526;13.408;2023-10-09T12:42:52;16.60;12.70
1413;DHT22;701;52.526;13.408;2023-10-09T12:45:19;16.50;12.60
1413;DHT22;701;52.526;13.408;2023-10-09T12:47:55;16.60;12.40
1413;DHT22;701;52.526;13.408;2023-10-09T12:50:28;16.70;12.60
1413;DHT22;701;52.526;13.408;2023-10-09T12:52:57;16.60;12.40
1413;DHT22;701;52.526;13.408;2023-10-09T12:55:39;16.50;12.70
1413;DHT22;701;52.526;13.408;2023-10-09T12:58:09;16.40;13.00
1413;DHT22;701;52.526;13.408;2023-10-09T13:00:41;16.30;13.20
1413;DHT22;701;52.526;13.408;2023-10-09T13:03:15;16.30;13.40
1413;DHT22;701;52.526;13.408;2023-10-09T13:05:52;16.30;13.70
1413;DHT22;701;52.526;13.408;2023-10-09T13:08:23;16.20;13.60
1413;DHT22;701;52.526;13.408;2023-10-09T13:10:50;16.20;13.60
1413;DHT22;701;52.526;13.408;2023-10-09T13:13:27;16.20;13.60
1413;DHT22;701;52.526;13.408;2023-10-09T13:16:08;16.10;13.90
1413;DHT22;701;52.526;13.408;2023-10-09T13:18:38;16.00;14.10
1413;DHT22;701;52.526;13.408;2023-10-09T13:21:04;15.90;14.50
1413;DHT22;701;52.526;13.408;2023-10-09T13:23:33;15.90;14.60
1413;DHT22;701;52.526;13.408;2023-10-09T13:26:06;15.90;14.70
1413;DHT22;701;52.526;13.408;2023-10-09T13:28:53;15.90;14.80
1413;DHT22;701;52.526;13.408;2023-10-09T13:31:20;15.90;15.00
1413;DHT22;701;52.526;13.408;2023-10-09T13:33:47;15.90;15.10
1413;DHT22;701;52.526;13.408;2023-10-09T13:36:14;15.80;15.20
1413;DHT22;701;52.526;13.408;2023-10-09T13:38:45;15.70;15.20
1413;DHT22;701;52.526;13.408;2023-10-09T13:41:12;15.60;15.30
1413;DHT22;701;52.526;13.408;2023-10-09T13:43:43;15.50;15.60
1413;DHT22;701;52.526;13.408;2023-10-09T13:46:12;15.40;16.00
1413;DHT22;701;52.526;13.408;2023-10-09T13:48:41;15.30;16.40
1413;DHT22;701;52.526;13.408;2023-10-09T13:51:12;15.20;16.70
1413;DHT22;701;52.526;13.408;2023-10-09T13:53:45;15.10;16.60
1413;DHT22;701;52.526;13.408;2023-10-09T13:56:19;15.00;16.90
1413;DHT22;701;52.526;13.408;2023-10-09T13:58:49;15.00;17.40
1413;DHT22;701;52.526;13.408;2023-10-09T14:01:17;14.90;17.50
1413;DHT22;701;52.526;13.408;2023-10-09T14:03:59;14.90;17.60
1413;DHT22;701;52.526;13.408;2023-10-09T14:06:26;14.90;17.70
1413;DHT22;701;52.526;13.408;2023-10-09T14:09:03;15.00;17.70
1413;DHT22;701;52.526;13.408;2023-10-09T14:11:35;15.00;17.70
1413;DHT22;701;52.526;13.408;2023-10-09T14:14:05;14.90;17.80
1413;DHT22;701;52.526;13.408;2023-10-09T14:16:38;14.90;17.90
1413;DHT22;701;52.526;13.408;2023-10-09T14:19:09;14.80;18.20
1413;DHT22;701;52.526;13.408;2023-10-09T14:21:39;14.80;18.30
1413;DHT22;701;52.526;13.408;2023-10-09T14:24:06;14.80;18.80
1413;DHT22;701;52.526;13.408;2023-10-09T14:26:43;14.70;18.80
1413;DHT22;701;52.526;13.408;2023-10-09T14:29:12;14.80;19.10
1413;DHT22;701;52.526;13.408;2023-10-09T14:31:45;14.70;19.10
1413;DHT22;701;52.526;13.408;2023-10-09T14:34:28;14.70;19.20
1413;DHT22;701;52.526;13.408;2023-10-09T14:37:01;14.70;19.30
1413;DHT22;701;52.526;13.408;2023-10-09T14:39:28;14.70;19.30
1413;DHT22;701;52.526;13.408;2023-10-09T14:41:55;14.70;19.40
1413;DHT22;701;52.526;13.408;2023-10-09T14:44:24;14.70;19.50
1413;DHT22;701;52.526;13.408;2023-10-09T14:46:50;14.70;19.20
1413;DHT22;701;52.526;13.408;2023-10-09T14:49:16;14.80;19.40
1413;DHT22;701;52.526;13.408;2023-10-09T14:51:47;14.70;19.40
1413;DHT22;701;52.526;13.408;2023-10-09T14:54:13;14.70;19.40
1413;DHT22;701;52.526;13.408;2023-10-09T14:56:44;14.70;19.40
1413;DHT22;701;52.526;13.408;2023-10-09T14:59:11;14.70;19.40
1413;DHT22;701;52.526;13.408;2023-10-09T15:01:37;14.70;19.40
1413;DHT22;701;52.526;13.408;2023-10-09T15:04:03;14.60;19.40
1413;DHT22;701;52.526;13.408;2023-10-09T15:06:29;14.60;19.60
1413;DHT22;701;52.526;13.408;2023-10-09T15:08:59;14.60;19.90
1413;DHT22;701;52.526;13.408;2023-10-09T15:11:34;14.50;19.90
1413;DHT22;701;52.526;13.408;2023-10-09T15:14:00;14.50;19.90
1413;DHT22;701;52.526;13.408;2023-10-09T15:16:26;14.50;19.90
1413;DHT22;701;52.526;13.408;2023-10-09T15:18:56;14.50;19.90
1413;DHT22;701;52.526;13.408;2023-10-09T15:21:30;14.40;20.00
1413;DHT22;701;52.526;13.408;2023-10-09T15:23:59;14.30;20.50
1413;DHT22;701;52.526;13.408;2023-10-09T15:26:25;14.30;20.70
1413;DHT22;701;52.526;13.408;2023-10-09T15:29:00;14.30;20.80
1413;DHT22;701;52.526;13.408;2023-10-09T15:31:26;14.20;20.80
1413;DHT22;701;52.526;13.408;2023-10-09T15:33:52;14.20;20.90
1413;DHT22;701;52.526;13.408;2023-10-09T15:36:19;14.20;21.10
1413;DHT22;701;52.526;13.408;2023-10-09T15:38:51;14.20;21.50
1413;DHT22;701;52.526;13.408;2023-10-09T15:41:17;14.10;21.70
1413;DHT22;701;52.526;13.408;2023-10-09T15:43:46;14.10;21.90
1413;DHT22;701;52.526;13.408;2023-10-09T15:46:13;14.10;21.80
1413;DHT22;701;52.526;13.408;2023-10-09T15:48:43;14.00;21.90
1413;DHT22;701;52.526;13.408;2023-10-09T15:51:11;14.00;22.40
1413;DHT22;701;52.526;13.408;2023-10-09T15:53:43;13.90;22.50
1413;DHT22;701;52.526;13.408;2023-10-09T15:56:13;13.90;22.70
1413;DHT22;701;52.526;13.408;2023-10-09T15:58:43;13.80;23.00
1413;DHT22;701;52.526;13.408;2023-10-09T16:01:13;13.70;23.30
1413;DHT22;701;52.526;13.408;2023-10-09T16:03:42;13.60;23.10
1413;DHT22;701;52.526;13.408;2023-10-09T16:06:09;13.60;23.30
1413;DHT22;701;52.526;13.408;2023-10-09T16:08:47;13.60;23.90
1413;DHT22;701;52.526;13.408;2023-10-09T16:11:17;13.50;23.90
1413;DHT22;701;52.526;13.408;2023-10-09T16:13:43;13.50;24.20
1413;DHT22;701;52.526;13.408;2023-10-09T16:16:09;13.50;24.60
1413;DHT22;701;52.526;13.408;2023-10-09T16:18:35;13.50;24.40
1413;DHT22;701;52.526;13.408;2023-10-09T16:21:04;13.50;24.90
1413;DHT22;701;52.526;13.408;2023-10-09T16:23:32;13.50;25.10
1413;DHT22;701;52.526;13.408;2023-10-09T16:25:58;13.50;25.50
1413;DHT22;701;52.526;13.408;2023-10-09T16:28:29;13.40;25.60
1413;DHT22;701;52.526;13.408;2023-10-09T16:30:55;13.40;25.50
1413;DHT22;701;52.526;13.408;2023-10-09T16:33:22;13.30;26.30
1413;DHT22;701;52.526;13.408;2023-10-09T16:35:49;13.20;26.20
1413;DHT22;701;52.526;13.408;2023-10-09T16:38:16;13.20;26.20
1413;DHT22;701;52.526;13.408;2023-10-09T16:40:42;13.20;26.70
1413;DHT22;701;52.526;13.408;2023-10-09T16:43:17;13.10;26.70
1413;DHT22;701;52.526;13.408;2023-10-09T16:45:43;13.10;27.50
1413;DHT22;701;52.526;13.408;2023-10-09T16:48:10;13.10;27.60
1413;DHT22;701;52.526;13.408;2023-10-09T16:50:36;13.20;27.90
1413;DHT22;701;52.526;13.408;2023-10-09T16:53:02;13.20;27.90
1413;DHT22;701;52.526;13.408;2023-10-09T16:55:30;13.10;28.10
1413;DHT22;701;52.526;13.408;2023-10-09T16:57:56;13.10;28.00
1413;DHT22;701;52.526;13.408;2023-10-09T17:00:22;13.10;28.30
1413;DHT22;701;52.526;13.408;2023-10-09T17:02:58;13.10;28.60
1413;DHT22;701;52.526;13.408;2023-10-09T17:05:27;13.10;28.40
1413;DHT22;701;52.526;13.408;2023-10-09T17:08:02;13.10;28.90
1413;DHT22;701;52.526;13.408;2023-10-09T17:10:32;13.10;29.40
1413;DHT22;701;52.526;13.408;2023-10-09T17:13:00;13.00;28.90